Time;durP1;ratioP1;P1;durP2;ratioP2;P2;SDS_P1;SDS_P2;PMS_P1;PMS_P2;Temp;Humidity;BMP_temperature;BMP_pressure;BME280_temperature;BME280_humidity;BME280_pressure;Samples;Min_cycle;Max_cycle;Signal;HPM_P1;HPM_P2
2023/01/08 00:01:27;;;;;;;4.15;3.30;;;;;;;13.58;51.56;93013.13;4949072;28;20039;-84
2023/01/08 00:03:52;;;;;;;3.88;3.42;;;;;;;13.56;51.42;92999.31;4937815;28;20047;-84
2023/01/08 00:06:18;;;;;;;3.65;3.13;;;;;;;13.57;51.70;92992.66;4946225;28;20176;-85
2023/01/08 00:08:43;;;;;;;4.18;3.42;;;;;;;13.55;51.39;92987.69;4962887;28;20479;-84
2023/01/08 00:11:09;;;;;;;3.70;3.30;;;;;;;13.54;51.71;92991.66;4946116;28;20439;-84
2023/01/08 00:13:34;;;;;;;4.47;3.28;;;;;;;13.54;51.64;92986.22;4946919;28;20054;-84
2023/01/08 00:16:05;;;;;;;4.80;3.35;;;;;;;13.55;51.39;92993.13;4946710;28;20432;-86
2023/01/08 00:18:30;;;;;;;3.83;3.40;;;;;;;13.54;51.54;92997.06;4935379;28;20039;-84
2023/01/08 00:20:56;;;;;;;3.88;3.30;;;;;;;13.56;51.53;92997.34;4962993;28;20047;-86
2023/01/08 00:23:21;;;;;;;4.63;3.33;;;;;;;13.54;51.42;92997.06;4943106;28;20055;-87
2023/01/08 00:25:47;;;;;;;4.55;3.10;;;;;;;13.54;51.37;93004.47;4944048;28;20455;-84
2023/01/08 00:28:13;;;;;;;3.95;3.55;;;;;;;13.54;51.51;93007.19;4932397;28;20047;-84
2023/01/08 00:30:39;;;;;;;4.03;3.33;;;;;;;13.53;51.41;93001.03;4946929;28;20043;-84
2023/01/08 00:33:04;;;;;;;3.60;3.30;;;;;;;13.54;51.33;92990.91;4929493;28;20044;-85
2023/01/08 00:35:30;;;;;;;3.90;3.20;;;;;;;13.57;51.65;92987.94;4946823;28;20044;-83
2023/01/08 00:37:55;;;;;;;4.40;3.42;;;;;;;13.57;51.66;92990.66;4947125;28;20486;-84
2023/01/08 00:40:21;;;;;;;5.15;3.63;;;;;;;13.56;51.37;92985.72;4964772;28;20490;-84
2023/01/08 00:42:47;;;;;;;3.80;3.25;;;;;;;13.55;51.54;92997.81;4949210;28;20512;-84
2023/01/08 00:45:13;;;;;;;4.35;3.45;;;;;;;13.56;51.58;92983.00;4964497;28;20046;-84
2023/01/08 00:47:38;;;;;;;4.22;3.22;;;;;;;13.55;51.49;92984.97;4966090;28;20078;-84
2023/01/08 00:50:04;;;;;;;3.65;3.33;;;;;;;13.58;51.33;92975.13;4960826;28;20098;-84
2023/01/08 00:52:29;;;;;;;4.32;3.55;;;;;;;13.56;51.17;92981.03;4930082;29;20096;-84
2023/01/08 00:54:54;;;;;;;5.45;3.35;;;;;;;13.58;51.05;92984.00;4937462;28;20051;-85
2023/01/08 00:57:20;;;;;;;3.85;3.40;;;;;;;13.56;51.25;92970.19;4978122;28;20140;-85
2023/01/08 00:59:45;;;;;;;3.67;3.38;;;;;;;13.58;51.19;92975.88;4965081;28;20043;-84
2023/01/08 01:02:11;;;;;;;4.00;3.38;;;;;;;13.58;51.35;92967.72;4964550;28;20035;-84
2023/01/08 01:04:36;;;;;;;5.25;4.65;;;;;;;13.56;51.02;92970.19;4964099;28;20043;-84
2023/01/08 01:07:02;;;;;;;4.72;3.85;;;;;;;13.56;51.08;92967.47;4949039;28;20035;-84
2023/01/08 01:09:27;;;;;;;4.32;3.40;;;;;;;13.58;51.33;92966.97;4948348;28;20675;-87
2023/01/08 01:11:53;;;;;;;3.47;3.15;;;;;;;13.58;51.43;92965.00;4965003;28;20098;-83
2023/01/08 01:14:18;;;;;;;4.68;3.63;;;;;;;13.57;51.06;92960.81;4963431;28;20430;-84
2023/01/08 01:16:43;;;;;;;3.65;3.20;;;;;;;13.56;51.26;92964.00;4965149;28;20050;-84
2023/01/08 01:19:09;;;;;;;3.70;3.15;;;;;;;13.59;51.18;92968.47;4982651;28;20422;-84
2023/01/08 01:21:34;;;;;;;4.75;3.90;;;;;;;13.60;50.92;92970.69;4961619;28;20115;-83
2023/01/08 01:24:02;;;;;;;4.22;3.45;;;;;;;13.58;51.54;92966.97;4961555;28;20036;-84
2023/01/08 01:26:27;;;;;;;3.80;3.42;;;;;;;13.57;51.28;92965.50;4979790;28;20841;-84
2023/01/08 01:28:54;;;;;;;4.13;3.53;;;;;;;13.62;51.07;92972.91;4944777;28;20032;-83
2023/01/08 01:31:20;;;;;;;5.07;3.95;;;;;;;13.60;51.05;92969.94;4960915;28;20040;-83
2023/01/08 01:33:45;;;;;;;4.53;3.80;;;;;;;13.58;51.29;92967.72;4980118;28;20505;-83
2023/01/08 01:36:11;;;;;;;4.03;3.40;;;;;;;13.58;51.15;92956.09;4964438;28;20086;-83
2023/01/08 01:38:37;;;;;;;6.70;3.72;;;;;;;13.58;51.09;92953.41;4964129;28;20031;-84
2023/01/08 01:41:02;;;;;;;3.90;3.60;;;;;;;13.57;51.10;92949.19;4963910;28;20114;-86
2023/01/08 01:43:41;;;;;;;4.47;3.28;;;;;;;13.59;51.33;92958.34;4980253;28;20039;-84
2023/01/08 01:46:36;;;;;;;4.00;3.60;;;;;;;13.58;51.31;92939.81;4948645;28;20514;-83
2023/01/08 01:49:13;;;;;;;3.67;3.17;;;;;;;13.60;51.18;92937.34;4963862;28;20046;-84
2023/01/08 01:51:41;;;;;;;4.15;3.70;;;;;;;13.59;50.85;92939.31;4943765;28;20083;-84
2023/01/08 01:54:07;;;;;;;4.50;4.10;;;;;;;13.57;51.06;92933.63;4950831;28;20569;-84
2023/01/08 01:56:33;;;;;;;3.92;3.50;;;;;;;13.59;51.14;92936.63;4964387;28;20050;-83
2023/01/08 01:58:58;;;;;;;3.72;3.42;;;;;;;13.57;51.24;92939.06;4948509;28;20039;-84
2023/01/08 02:01:24;;;;;;;4.22;3.50;;;;;;;13.57;51.29;92927.47;4964037;28;20047;-83
2023/01/08 02:03:49;;;;;;;3.58;3.28;;;;;;;13.60;51.46;92929.22;4963267;28;20039;-84
2023/01/08 02:06:35;;;;;;;4.97;4.03;;;;;;;13.59;50.93;92927.72;4980488;28;20039;-89
2023/01/08 02:09:32;;;;;;;4.07;3.58;;;;;;;13.58;51.20;92929.69;4968457;28;20123;-83
2023/01/08 02:12:16;;;;;;;4.28;3.47;;;;;;;13.60;51.42;92940.81;4968083;28;20406;-84
2023/01/08 02:15:15;;;;;;;3.80;3.40;;;;;;;13.59;51.15;92931.19;4950967;28;20039;-83
2023/01/08 02:17:55;;;;;;;4.80;3.50;;;;;;;13.58;50.95;92924.25;4964626;28;20047;-84
2023/01/08 02:20:35;;;;;;;3.97;3.50;;;;;;;13.59;51.34;92919.56;4949145;28;20055;-84
2023/01/08 02:23:32;;;;;;;4.05;3.58;;;;;;;13.58;51.20;92916.13;4952178;28;20035;-84
2023/01/08 02:26:11;;;;;;;3.90;3.53;;;;;;;13.57;51.52;92919.31;4968107;28;20517;-84
2023/01/08 02:28:48;;;;;;;4.35;3.95;;;;;;;13.57;50.78;92911.91;4963156;28;20589;-83
2023/01/08 02:31:14;;;;;;;4.05;3.50;;;;;;;13.55;51.12;92922.53;4951092;28;20083;-83
2023/01/08 02:33:39;;;;;;;5.85;3.25;;;;;;;13.56;51.28;92915.88;4983729;28;20371;-83
2023/01/08 02:36:37;;;;;;;3.97;3.58;;;;;;;13.59;51.30;92916.88;4951109;28;20031;-86
2023/01/08 02:39:18;;;;;;;3.75;3.38;;;;;;;13.60;50.96;92918.34;4965510;28;20035;-84
2023/01/08 02:41:51;;;;;;;5.45;3.42;;;;;;;13.62;50.82;92907.72;4951416;28;20423;-84
2023/01/08 02:44:29;;;;;;;4.90;3.72;;;;;;;13.59;50.76;92901.31;4966767;28;20035;-84
2023/01/08 02:46:54;;;;;;;3.75;3.22;;;;;;;13.59;51.15;92895.13;4983512;28;20077;-83
2023/01/08 02:49:20;;;;;;;5.05;3.72;;;;;;;13.60;50.83;92885.75;4967008;28;20035;-84
2023/01/08 02:51:49;;;;;;;4.38;3.65;;;;;;;13.62;51.00;92875.16;4967373;28;20039;-85
2023/01/08 02:54:16;;;;;;;4.13;3.50;;;;;;;13.58;50.93;92886.25;4969437;28;20505;-89
2023/01/08 02:56:44;;;;;;;4.05;3.40;;;;;;;13.57;50.85;92879.34;4970829;28;20047;-87
2023/01/08 02:59:10;;;;;;;3.35;3.05;;;;;;;13.56;50.94;92877.84;5002775;28;20449;-86
2023/01/08 03:01:35;;;;;;;4.70;3.67;;;;;;;13.61;51.10;92890.69;4954222;28;20035;-91
2023/01/08 03:04:15;;;;;;;4.43;3.70;;;;;;;13.59;50.98;92879.59;4954650;28;20481;-84
2023/01/08 03:06:41;;;;;;;4.23;3.73;;;;;;;13.59;50.76;92882.31;4970540;28;20042;-85
2023/01/08 03:09:07;;;;;;;4.45;3.80;;;;;;;13.59;51.00;92878.84;4970339;28;20549;-84
2023/01/08 03:11:39;;;;;;;4.50;3.70;;;;;;;13.59;50.90;92871.44;4970524;28;20039;-84
2023/01/08 03:14:17;;;;;;;4.63;3.78;;;;;;;13.60;50.67;92881.06;5001999;28;20089;-84
2023/01/08 03:16:51;;;;;;;3.53;3.22;;;;;;;13.59;50.83;92874.16;5002157;28;20105;-84
2023/01/08 03:19:24;;;;;;;5.55;3.72;;;;;;;13.60;50.93;92867.50;4971119;28;20065;-84
2023/01/08 03:21:50;;;;;;;3.78;3.40;;;;;;;13.59;50.95;92868.72;5002700;28;20074;-84
2023/01/08 03:24:23;;;;;;;4.47;3.90;;;;;;;13.58;50.80;92867.25;4969376;28;20031;-84
2023/01/08 03:26:49;;;;;;;4.35;3.47;;;;;;;13.57;50.88;92863.03;4968933;28;20082;-84
2023/01/08 03:29:16;;;;;;;4.10;3.70;;;;;;;13.56;51.08;92864.28;4969450;28;20045;-87
2023/01/08 03:31:41;;;;;;;3.75;3.38;;;;;;;13.59;51.02;92866.00;5001985;28;20046;-84
2023/01/08 03:34:07;;;;;;;3.72;3.28;;;;;;;13.63;50.64;92852.19;4968901;28;20027;-84
2023/01/08 03:36:32;;;;;;;4.10;3.70;;;;;;;13.59;50.87;92846.25;4969737;28;20039;-83
2023/01/08 03:39:08;;;;;;;3.67;3.38;;;;;;;13.64;50.96;92848.25;4953269;28;20030;-84
2023/01/08 03:41:34;;;;;;;4.80;3.63;;;;;;;13.61;50.80;92841.06;4952478;28;20087;-83
2023/01/08 03:43:59;;;;;;;3.53;3.15;;;;;;;13.62;50.71;92842.56;4953504;28;20097;-84
2023/01/08 03:46:29;;;;;;;4.88;3.45;;;;;;;13.60;50.83;92840.34;4952069;28;20409;-83
2023/01/08 03:48:55;;;;;;;4.65;3.80;;;;;;;13.60;51.13;92843.03;5001745;28;20114;-86
2023/01/08 03:51:20;;;;;;;4.13;3.30;;;;;;;13.59;51.05;92838.84;4984849;28;20049;-83
2023/01/08 03:53:46;;;;;;;4.07;3.63;;;;;;;13.63;51.04;92833.91;4969598;28;20043;-83
2023/01/08 03:56:11;;;;;;;4.43;3.78;;;;;;;13.61;50.68;92822.06;4948376;28;20054;-84
2023/01/08 03:58:37;;;;;;;4.53;3.88;;;;;;;13.57;50.93;92814.16;4966858;28;20581;-84
2023/01/08 04:01:05;;;;;;;3.95;3.53;;;;;;;13.59;50.81;92816.38;4965232;28;20058;-84
2023/01/08 04:03:30;;;;;;;4.53;3.78;;;;;;;13.60;50.75;92812.44;4961520;28;20518;-84
2023/01/08 04:05:58;;;;;;;4.13;3.60;;;;;;;13.58;51.12;92814.91;4943940;28;20044;-83
2023/01/08 04:08:24;;;;;;;5.38;3.40;;;;;;;13.63;50.77;92812.19;4943217;28;20515;-84
2023/01/08 04:10:49;;;;;;;3.97;3.45;;;;;;;13.60;50.62;92815.88;4941036;28;20040;-84
2023/01/08 04:13:14;;;;;;;4.20;3.60;;;;;;;13.62;50.63;92809.97;4931556;28;20027;-89
2023/01/08 04:15:40;;;;;;;5.25;3.78;;;;;;;13.64;50.56;92805.50;4960951;28;20046;-83
2023/01/08 04:18:05;;;;;;;3.42;3.10;;;;;;;13.62;50.69;92805.28;4962423;28;20032;-84
2023/01/08 04:20:31;;;;;;;4.72;3.70;;;;;;;13.60;50.54;92791.44;4949454;28;20044;-83
2023/01/08 04:22:56;;;;;;;5.03;3.72;;;;;;;13.60;50.84;92788.72;4959248;28;20036;-83
2023/01/08 04:25:21;;;;;;;4.43;3.88;;;;;;;13.59;50.97;92787.25;4965051;28;20441;-83
2023/01/08 04:27:47;;;;;;;4.38;3.67;;;;;;;13.61;50.67;92797.63;4954181;28;20054;-84
2023/01/08 04:30:12;;;;;;;3.88;3.42;;;;;;;13.62;50.56;92790.97;4949164;28;20050;-83
2023/01/08 04:32:38;;;;;;;4.10;3.70;;;;;;;13.64;50.64;92791.22;4946465;28;20040;-84
2023/01/08 04:35:04;;;;;;;4.20;3.75;;;;;;;13.63;50.29;92779.59;4945919;28;20260;-83
2023/01/08 04:37:29;;;;;;;3.70;3.30;;;;;;;13.59;50.63;92770.22;4961574;28;20569;-83
2023/01/08 04:39:54;;;;;;;4.47;3.47;;;;;;;13.63;50.61;92768.75;4945345;28;20047;-84
2023/01/08 04:42:20;;;;;;;4.55;3.47;;;;;;;13.66;50.47;92761.56;4930223;28;20032;-84
2023/01/08 04:44:45;;;;;;;3.72;3.30;;;;;;;13.61;50.33;92757.63;4931322;28;20420;-83
2023/01/08 04:47:11;;;;;;;4.82;4.00;;;;;;;13.60;50.88;92769.72;4929189;28;20043;-84
2023/01/08 04:49:36;;;;;;;4.13;3.70;;;;;;;13.59;50.65;92762.06;4946814;28;20031;-84
2023/01/08 04:52:02;;;;;;;4.57;3.80;;;;;;;13.61;50.42;92754.16;4958882;28;20040;-83
2023/01/08 04:54:27;;;;;;;4.25;3.67;;;;;;;13.59;50.76;92756.63;4946702;28;20052;-84
2023/01/08 04:56:52;;;;;;;4.53;3.83;;;;;;;13.60;50.61;92753.44;4949417;28;20043;-84
2023/01/08 04:59:18;;;;;;;4.05;3.60;;;;;;;13.62;50.22;92758.38;4948341;28;20410;-83
2023/01/08 05:01:43;;;;;;;4.28;3.63;;;;;;;13.63;50.25;92757.13;4981712;28;20114;-84
2023/01/08 05:04:09;;;;;;;4.57;4.10;;;;;;;13.59;50.57;92748.50;4964644;28;20035;-84
2023/01/08 05:06:34;;;;;;;4.15;3.28;;;;;;;13.61;50.52;92748.75;4948860;28;20054;-86
2023/01/08 05:08:59;;;;;;;3.88;3.47;;;;;;;13.58;50.12;92755.16;4964510;28;20121;-83
2023/01/08 05:11:25;;;;;;;3.47;3.17;;;;;;;13.57;50.56;92749.00;4981251;28;20050;-84
2023/01/08 05:13:51;;;;;;;4.32;3.38;;;;;;;13.61;50.35;92741.34;4949299;28;20040;-83
2023/01/08 05:16:16;;;;;;;4.25;3.78;;;;;;;13.64;50.43;92753.19;4960645;28;20051;-84
2023/01/08 05:18:42;;;;;;;4.55;4.15;;;;;;;13.63;50.36;92738.13;4947343;28;20578;-84
2023/01/08 05:21:08;;;;;;;4.45;3.72;;;;;;;13.62;50.72;92736.66;4947778;28;20115;-84
2023/01/08 05:23:33;;;;;;;4.07;3.67;;;;;;;13.64;50.41;92743.03;4964680;28;20051;-84
2023/01/08 05:25:59;;;;;;;3.75;3.45;;;;;;;13.65;50.32;92741.81;4965098;28;20047;-84
2023/01/08 05:28:25;;;;;;;4.65;3.90;;;;;;;13.65;50.17;92747.22;4947065;28;20039;-84
2023/01/08 05:30:50;;;;;;;4.15;3.75;;;;;;;13.64;50.11;92743.03;4948891;28;20354;-84
2023/01/08 05:33:16;;;;;;;5.70;4.10;;;;;;;13.60;50.64;92745.28;4948636;28;20509;-84
2023/01/08 05:35:42;;;;;;;3.85;3.35;;;;;;;13.61;50.63;92741.34;4964395;28;20040;-84
2023/01/08 05:38:07;;;;;;;4.57;3.33;;;;;;;13.60;50.50;92747.25;4963933;28;20390;-83
2023/01/08 05:40:32;;;;;;;4.78;3.67;;;;;;;13.60;50.41;92739.13;4963785;28;20054;-84
2023/01/08 05:42:58;;;;;;;4.07;3.58;;;;;;;13.63;50.35;92743.56;4964444;28;20048;-87
2023/01/08 05:45:26;;;;;;;4.00;3.60;;;;;;;13.65;50.31;92744.53;4964130;28;20050;-84
2023/01/08 05:47:51;;;;;;;4.40;3.90;;;;;;;13.61;50.14;92732.44;4949160;28;20043;-84
2023/01/08 05:50:16;;;;;;;4.47;3.58;;;;;;;13.61;50.43;92749.47;4962614;28;20097;-89
2023/01/08 05:52:42;;;;;;;4.20;3.55;;;;;;;13.59;50.44;92746.53;4948131;28;20043;-84
2023/01/08 05:55:08;;;;;;;3.60;3.25;;;;;;;13.63;50.00;92741.59;4980387;28;20050;-85
2023/01/08 05:57:33;;;;;;;3.35;3.05;;;;;;;13.64;50.48;92745.75;4932634;28;20490;-83
2023/01/08 05:59:59;;;;;;;4.45;3.55;;;;;;;13.65;50.32;92746.50;4963871;28;20135;-83
2023/01/08 06:02:24;;;;;;;4.55;3.60;;;;;;;13.67;50.40;92746.75;4964044;28;20047;-85
2023/01/08 06:04:49;;;;;;;4.38;3.60;;;;;;;13.65;50.30;92739.09;4980338;28;20550;-84
2023/01/08 06:07:15;;;;;;;3.95;3.20;;;;;;;13.64;50.32;92734.88;4947618;28;20036;-90
2023/01/08 06:09:40;;;;;;;4.70;3.40;;;;;;;13.66;49.99;92740.56;4964383;28;20078;-85
2023/01/08 06:12:06;;;;;;;3.88;3.50;;;;;;;13.65;50.08;92735.63;4944582;28;20040;-84
2023/01/08 06:14:31;;;;;;;4.03;3.55;;;;;;;13.66;50.25;92734.41;4960814;28;20156;-83
2023/01/08 06:16:56;;;;;;;4.90;3.58;;;;;;;13.63;50.17;92725.28;4963667;28;20054;-83
2023/01/08 06:19:22;;;;;;;4.25;3.20;;;;;;;13.65;50.12;92722.78;4979361;28;20059;-83
2023/01/08 06:21:48;;;;;;;4.38;3.58;;;;;;;13.67;50.23;92711.44;4947703;28;20039;-84
2023/01/08 06:24:13;;;;;;;4.82;3.47;;;;;;;13.63;50.36;92705.53;4964080;28;20409;-84
2023/01/08 06:26:38;;;;;;;5.30;4.25;;;;;;;13.62;50.48;92699.38;4963219;28;20048;-83
2023/01/08 06:29:04;;;;;;;4.25;3.80;;;;;;;13.63;49.99;92689.97;4962919;28;20046;-84
2023/01/08 06:31:29;;;;;;;5.30;3.72;;;;;;;13.61;50.35;92687.03;4947942;28;20051;-84
2023/01/08 06:33:55;;;;;;;4.15;3.75;;;;;;;13.59;50.48;92672.47;4963908;28;20051;-84
2023/01/08 06:36:20;;;;;;;4.50;3.22;;;;;;;13.67;50.28;92678.84;4943862;28;20044;-84
2023/01/08 06:38:45;;;;;;;3.60;3.20;;;;;;;13.65;50.44;92667.72;4976528;28;20103;-84
2023/01/08 06:41:11;;;;;;;5.18;3.70;;;;;;;13.61;50.13;92659.88;4976304;28;20467;-84
2023/01/08 06:43:37;;;;;;;3.83;3.42;;;;;;;13.63;50.17;92657.41;4976827;28;20044;-84
2023/01/08 06:46:05;;;;;;;3.88;3.50;;;;;;;13.66;50.06;92664.53;4961349;28;20070;-85
2023/01/08 06:48:30;;;;;;;4.60;3.65;;;;;;;13.63;50.25;92662.81;4947469;28;20063;-83
2023/01/08 06:50:58;;;;;;;3.67;3.25;;;;;;;13.66;50.11;92666.50;4931163;28;20039;-84
2023/01/08 06:53:23;;;;;;;4.05;3.50;;;;;;;13.63;50.24;92665.53;4981898;28;20047;-91
2023/01/08 06:55:55;;;;;;;4.70;3.80;;;;;;;13.63;49.99;92660.13;4967050;28;20078;-83
2023/01/08 06:58:20;;;;;;;4.03;3.40;;;;;;;13.66;50.11;92659.09;4965587;28;20035;-83
2023/01/08 07:00:45;;;;;;;4.40;3.83;;;;;;;13.67;50.04;92651.69;4983359;28;20035;-84
2023/01/08 07:03:11;;;;;;;4.03;3.65;;;;;;;13.68;49.75;92664.78;4966815;28;20104;-83
2023/01/08 07:05:36;;;;;;;4.40;3.67;;;;;;;13.70;50.21;92665.00;4950652;28;20042;-84
2023/01/08 07:08:02;;;;;;;5.05;3.60;;;;;;;13.68;50.04;92681.06;4951459;28;20036;-84
2023/01/08 07:10:27;;;;;;;4.30;3.55;;;;;;;13.68;50.30;92688.47;4982360;28;20035;-84
2023/01/08 07:12:53;;;;;;;4.40;3.55;;;;;;;13.68;49.89;92691.19;4950735;28;20046;-83
2023/01/08 07:15:18;;;;;;;4.15;3.33;;;;;;;13.68;50.02;92697.34;4967158;28;20454;-84
2023/01/08 07:17:43;;;;;;;4.18;3.63;;;;;;;13.67;50.00;92701.31;4963396;28;20047;-84
2023/01/08 07:20:09;;;;;;;3.30;3.00;;;;;;;13.65;49.84;92695.63;4976159;28;20466;-84
2023/01/08 07:22:35;;;;;;;5.13;3.90;;;;;;;13.66;50.11;92704.53;4950554;28;20102;-83
2023/01/08 07:25:00;;;;;;;5.22;3.72;;;;;;;13.68;49.70;92707.47;4950792;28;20035;-84
2023/01/08 07:27:26;;;;;;;4.50;3.90;;;;;;;13.67;49.88;92711.44;4965437;28;20451;-84
2023/01/08 07:29:51;;;;;;;3.95;3.55;;;;;;;13.64;50.40;92720.59;4950272;28;20043;-84
2023/01/08 07:32:16;;;;;;;4.07;3.45;;;;;;;13.67;50.31;92720.31;4982540;28;20050;-85
2023/01/08 07:34:42;;;;;;;4.50;3.97;;;;;;;13.65;49.47;92706.50;4967005;28;20043;-83
2023/01/08 07:37:07;;;;;;;3.63;3.20;;;;;;;13.70;50.00;92699.59;4967700;28;20046;-84
2023/01/08 07:39:33;;;;;;;3.22;2.92;;;;;;;13.69;50.04;92703.53;4952006;28;20038;-87
2023/01/08 07:41:58;;;;;;;4.25;3.80;;;;;;;13.69;50.18;92690.69;4968087;28;20589;-87
2023/01/08 07:44:23;;;;;;;6.15;3.40;;;;;;;13.69;50.22;92682.53;4920035;28;20039;-83
2023/01/08 07:46:49;;;;;;;4.22;3.30;;;;;;;13.69;49.74;92677.13;4920120;28;20035;-83
2023/01/08 07:49:14;;;;;;;3.97;3.58;;;;;;;13.72;49.90;92670.69;4951249;28;20058;-87
2023/01/08 07:51:39;;;;;;;4.65;3.85;;;;;;;13.73;49.75;92668.72;4951087;28;20043;-84
2023/01/08 07:54:05;;;;;;;4.95;3.53;;;;;;;13.68;49.90;92664.03;4932513;28;20055;-83
2023/01/08 07:56:30;;;;;;;3.97;3.35;;;;;;;13.68;49.89;92656.63;4964633;28;20570;-83
2023/01/08 07:58:56;;;;;;;3.85;3.42;;;;;;;13.72;49.78;92650.94;4920067;28;20109;-84
2023/01/08 08:01:21;;;;;;;4.88;3.20;;;;;;;13.68;49.98;92653.16;4966370;28;20079;-83
2023/01/08 08:03:47;;;;;;;4.72;3.63;;;;;;;13.67;50.01;92659.84;4919677;28;20549;-84
2023/01/08 08:06:12;;;;;;;4.70;3.65;;;;;;;13.70;49.66;92648.72;4918163;28;20043;-83
2023/01/08 08:08:38;;;;;;;4.63;3.10;;;;;;;13.67;49.88;92644.28;4963304;28;20066;-84
2023/01/08 08:11:03;;;;;;;3.75;3.38;;;;;;;13.69;49.96;92641.06;4948962;28;20134;-84
2023/01/08 08:13:29;;;;;;;3.95;3.55;;;;;;;13.68;49.81;92626.75;4933666;28;20118;-84
2023/01/08 08:15:54;;;;;;;5.28;3.22;;;;;;;13.70;49.78;92620.81;4966173;28;20042;-85
2023/01/08 08:18:20;;;;;;;4.50;3.90;;;;;;;13.70;49.52;92637.84;4948684;28;20044;-84
2023/01/08 08:20:46;;;;;;;3.67;3.28;;;;;;;13.70;49.90;92634.41;4933017;28;20055;-84
2023/01/08 08:23:12;;;;;;;4.80;3.70;;;;;;;13.69;49.96;92614.66;4965385;28;20039;-84
2023/01/08 08:25:38;;;;;;;4.45;3.50;;;;;;;13.71;49.92;92617.59;4950010;28;20035;-84
2023/01/08 08:28:03;;;;;;;3.72;3.20;;;;;;;13.68;49.89;92612.44;4964562;28;20426;-83
2023/01/08 08:30:30;;;;;;;4.05;3.50;;;;;;;13.70;49.88;92635.13;4943523;28;20262;-83
2023/01/08 08:32:59;;;;;;;4.65;3.92;;;;;;;13.72;49.96;92626.50;4981590;28;20035;-84
2023/01/08 08:35:25;;;;;;;4.07;3.42;;;;;;;13.75;49.99;92628.22;4965246;28;20134;-84
2023/01/08 08:37:50;;;;;;;4.53;3.53;;;;;;;13.73;49.72;92631.44;4949427;28;20039;-84
2023/01/08 08:40:16;;;;;;;4.57;3.28;;;;;;;13.74;49.44;92632.16;4961420;28;20043;-84
2023/01/08 08:42:41;;;;;;;4.03;3.53;;;;;;;13.75;49.86;92636.38;4964304;28;20469;-83
2023/01/08 08:45:07;;;;;;;3.53;2.88;;;;;;;13.75;49.59;92654.63;4965151;28;20031;-84
2023/01/08 08:47:32;;;;;;;4.28;3.67;;;;;;;13.73;49.75;92663.28;4949212;28;20677;-83
2023/01/08 08:49:57;;;;;;;4.00;3.42;;;;;;;13.76;49.90;92661.56;4948965;28;20110;-84
2023/01/08 08:52:23;;;;;;;4.63;3.38;;;;;;;13.79;49.74;92674.13;4932622;28;20051;-86
2023/01/08 08:54:48;;;;;;;3.58;3.28;;;;;;;13.74;49.98;92667.47;4953201;28;20039;-84
2023/01/08 08:57:14;;;;;;;4.38;3.95;;;;;;;13.72;49.78;92665.25;4997355;28;20533;-84
2023/01/08 08:59:39;;;;;;;3.50;3.20;;;;;;;13.74;49.61;92662.03;4981552;28;20503;-90
2023/01/08 09:02:04;;;;;;;3.60;3.28;;;;;;;13.75;49.76;92665.50;4963933;28;20050;-85
2023/01/08 09:04:32;;;;;;;4.00;3.40;;;;;;;13.76;49.91;92666.97;4964491;28;20039;-84
2023/01/08 09:06:57;;;;;;;3.90;3.50;;;;;;;13.78;49.95;92659.06;4980958;28;20066;-84
2023/01/08 09:09:23;;;;;;;4.70;3.72;;;;;;;13.75;49.79;92668.97;4948000;28;20090;-84
2023/01/08 09:11:49;;;;;;;3.80;3.40;;;;;;;13.75;49.93;92655.38;4964183;28;20039;-83
2023/01/08 09:14:14;;;;;;;3.78;3.00;;;;;;;13.75;49.84;92649.19;4997345;28;20035;-88
2023/01/08 09:16:40;;;;;;;4.00;3.65;;;;;;;13.77;49.70;92655.63;4964565;28;20067;-87
2023/01/08 09:19:06;;;;;;;5.93;3.63;;;;;;;13.79;49.54;92655.13;4963811;28;20046;-85
2023/01/08 09:21:31;;;;;;;4.63;3.22;;;;;;;13.79;49.48;92666.00;4980288;28;20063;-84
2023/01/08 09:23:57;;;;;;;3.58;3.28;;;;;;;13.81;49.60;92658.09;4964946;28;20583;-84
2023/01/08 09:26:22;;;;;;;3.95;3.40;;;;;;;13.77;49.92;92682.78;4948144;28;20611;-84
2023/01/08 09:28:47;;;;;;;3.67;3.22;;;;;;;13.77;49.48;92671.19;4932393;29;20070;-84
2023/01/08 09:31:13;;;;;;;4.13;3.40;;;;;;;13.76;49.61;92664.25;4979644;28;20513;-84
2023/01/08 09:33:38;;;;;;;3.47;3.17;;;;;;;13.77;49.61;92671.91;4980581;28;20039;-84
2023/01/08 09:36:04;;;;;;;3.85;3.22;;;;;;;13.81;49.58;92674.38;4981390;28;20468;-90
2023/01/08 09:38:29;;;;;;;4.03;3.40;;;;;;;13.77;49.84;92669.19;4949037;28;20058;-89
2023/01/08 09:41:04;;;;;;;6.35;3.20;;;;;;;13.75;49.85;92666.25;4965041;28;20066;-85
2023/01/08 09:43:31;;;;;;;3.97;3.58;;;;;;;13.77;49.78;92671.91;4996238;28;20377;-84
2023/01/08 09:45:58;;;;;;;3.33;3.03;;;;;;;13.78;50.07;92670.69;4997706;28;20046;-84
2023/01/08 09:48:25;;;;;;;3.65;3.25;;;;;;;13.77;49.71;92666.47;4947063;28;20040;-84
2023/01/08 09:50:50;;;;;;;4.18;3.30;;;;;;;13.79;49.57;92653.16;4980377;28;20049;-84
2023/01/08 09:53:16;;;;;;;3.80;3.28;;;;;;;13.79;49.62;92660.56;4947506;28;20047;-85
2023/01/08 09:55:42;;;;;;;3.78;3.28;;;;;;;13.76;49.88;92664.25;4996821;28;20114;-84
2023/01/08 09:58:21;;;;;;;3.58;3.00;;;;;;;13.80;49.57;92656.59;4980971;28;20051;-84
2023/01/08 10:00:47;;;;;;;3.78;3.33;;;;;;;13.83;49.75;92663.75;4979724;28;20044;-84
2023/01/08 10:03:12;;;;;;;3.88;3.45;;;;;;;13.82;49.76;92648.69;4957151;28;20125;-85
2023/01/08 10:05:40;;;;;;;3.63;3.25;;;;;;;13.80;49.44;92641.03;4949050;28;20479;-93
2023/01/08 10:08:08;;;;;;;3.80;3.28;;;;;;;13.80;49.68;92626.72;4996374;28;20126;-86
2023/01/08 10:10:35;;;;;;;4.40;3.25;;;;;;;13.82;49.71;92627.72;4970989;28;20104;-85
2023/01/08 10:13:00;;;;;;;4.25;3.20;;;;;;;13.81;49.47;92631.66;4979665;28;20039;-84
2023/01/08 10:15:26;;;;;;;4.90;3.38;;;;;;;13.83;49.64;92633.88;4980549;28;20043;-84
2023/01/08 10:18:01;;;;;;;4.90;3.58;;;;;;;13.80;49.86;92649.19;4995072;28;20035;-84
2023/01/08 10:20:27;;;;;;;5.03;3.45;;;;;;;13.82;49.67;92656.84;4985207;28;20043;-84
2023/01/08 10:22:53;;;;;;;3.75;3.30;;;;;;;13.81;49.46;92661.53;4992188;28;20036;-84
2023/01/08 10:25:23;;;;;;;4.25;3.60;;;;;;;13.86;49.60;92663.47;4960337;28;20615;-84
2023/01/08 10:27:59;;;;;;;3.70;3.37;;;;;;;13.86;49.48;92676.31;4993170;28;20546;-84
2023/01/08 10:30:35;;;;;;;3.47;3.10;;;;;;;13.84;49.75;92665.25;4983163;28;20261;-84
2023/01/08 10:33:12;;;;;;;4.03;3.45;;;;;;;13.86;49.53;92657.31;4983237;28;20127;-84
2023/01/08 10:35:38;;;;;;;3.92;2.97;;;;;;;13.83;49.79;92666.47;4967541;28;20123;-84
2023/01/08 10:38:04;;;;;;;3.40;3.10;;;;;;;13.84;49.76;92674.13;4983317;28;20039;-83
2023/01/08 10:40:41;;;;;;;4.07;3.50;;;;;;;13.84;49.72;92679.56;4967536;28;20465;-84
2023/01/08 10:43:13;;;;;;;4.63;3.60;;;;;;;13.86;49.63;92677.06;4981770;28;20047;-84
2023/01/08 10:45:40;;;;;;;3.67;3.38;;;;;;;13.85;49.68;92674.88;4967950;28;20046;-83
2023/01/08 10:48:06;;;;;;;3.88;3.03;;;;;;;13.88;49.52;92668.41;4966669;28;20054;-84
2023/01/08 10:50:32;;;;;;;3.45;3.15;;;;;;;13.86;49.32;92671.63;4967386;28;20445;-84
2023/01/08 10:53:02;;;;;;;3.72;3.25;;;;;;;13.83;49.51;92672.66;4999678;28;20544;-83
2023/01/08 10:55:30;;;;;;;4.13;3.55;;;;;;;13.85;49.81;92677.59;4998904;28;20047;-84
2023/01/08 10:58:07;;;;;;;3.50;3.20;;;;;;;13.86;49.63;92668.91;5000168;28;20351;-84
2023/01/08 11:00:34;;;;;;;4.25;3.13;;;;;;;13.85;49.82;92662.03;4983069;28;20043;-90
2023/01/08 11:03:04;;;;;;;3.55;3.20;;;;;;;13.86;49.60;92676.31;4982605;28;20050;-84
2023/01/08 11:05:37;;;;;;;3.60;3.17;;;;;;;13.86;49.42;92685.22;4999276;28;20127;-84
2023/01/08 11:08:05;;;;;;;3.78;3.25;;;;;;;13.87;49.76;92672.38;4983085;28;20086;-84
2023/01/08 11:10:30;;;;;;;3.42;3.10;;;;;;;13.84;49.55;92674.13;4951998;28;20036;-84
2023/01/08 11:12:57;;;;;;;3.60;2.78;;;;;;;13.83;49.79;92685.50;4951045;28;20043;-84
2023/01/08 11:15:29;;;;;;;4.03;3.05;;;;;;;13.88;49.65;92685.44;4982665;28;20793;-84
2023/01/08 11:17:54;;;;;;;3.63;3.33;;;;;;;13.85;49.83;92681.03;4999089;28;20043;-86
2023/01/08 11:20:27;;;;;;;4.15;2.97;;;;;;;13.85;49.65;92664.00;4962089;28;20063;-84
2023/01/08 11:23:04;;;;;;;4.47;4.07;;;;;;;13.88;50.12;92655.56;4999222;28;20028;-84
2023/01/08 11:25:30;;;;;;;3.58;3.15;;;;;;;13.86;50.02;92649.16;4946879;28;20122;-84
2023/01/08 11:27:55;;;;;;;4.18;3.30;;;;;;;13.85;49.83;92647.69;4976701;28;20050;-85
2023/01/08 11:30:22;;;;;;;4.05;3.63;;;;;;;13.84;49.95;92649.69;4966485;28;20054;-85
2023/01/08 11:33:00;;;;;;;3.78;3.33;;;;;;;13.85;49.42;92662.03;4950947;28;20039;-86
2023/01/08 11:35:45;;;;;;;3.47;3.15;;;;;;;13.86;49.83;92660.03;4981674;28;20043;-89